Time;durP1;ratioP1;P1;durP2;ratioP2;P2;SDS_P1;SDS_P2;PMS_P1;PMS_P2;Temp;Humidity;BMP_temperature;BMP_pressure;BME280_temperature;BME280_humidity;BME280_pressure;Samples;Min_cycle;Max_cycle;Signal;HPM_P1;HPM_P2
2022/03/07 00:02:02;;;;;;;16.17;9.73;;;;;;;;;;5097023;28;20055;-80
2022/03/07 00:04:29;;;;;;;16.10;10.02;;;;;;;;;;5114546;28;20036;-79
2022/03/07 00:06:55;;;;;;;17.42;11.07;;;;;;;;;;5097076;28;20050;-77
2022/03/07 00:09:21;;;;;;;18.08;10.65;;;;;;;;;;5111198;28;20043;-77
2022/03/07 00:11:47;;;;;;;18.33;10.07;;;;;;;;;;5058488;28;20036;-77
2022/03/07 00:14:14;;;;;;;18.40;11.07;;;;;;;;;;5082118;28;20043;-79
2022/03/07 00:16:40;;;;;;;18.55;10.95;;;;;;;;;;5088649;28;20046;-77
2022/03/07 00:19:06;;;;;;;16.88;11.27;;;;;;;;;;5133879;28;20043;-77
2022/03/07 00:21:33;;;;;;;19.25;11.45;;;;;;;;;;5137997;27;20046;-77
2022/03/07 00:23:59;;;;;;;17.92;12.07;;;;;;;;;;5137843;27;20039;-78
2022/03/07 00:26:25;;;;;;;17.73;11.45;;;;;;;;;;5104968;28;20119;-79
2022/03/07 00:28:51;;;;;;;15.70;10.68;;;;;;;;;;5101818;28;20112;-78
2022/03/07 00:31:19;;;;;;;15.55;10.98;;;;;;;;;;5126872;27;20388;-78
2022/03/07 00:33:46;;;;;;;14.90;9.90;;;;;;;;;;5115640;27;20130;-77
2022/03/07 00:36:12;;;;;;;16.50;10.60;;;;;;;;;;5103664;27;20126;-77
2022/03/07 00:38:38;;;;;;;16.42;10.90;;;;;;;;;;5118075;27;20036;-78
2022/03/07 00:41:04;;;;;;;15.38;11.18;;;;;;;;;;5103657;27;20418;-76
2022/03/07 00:43:30;;;;;;;16.92;10.52;;;;;;;;;;5116250;27;20130;-77
2022/03/07 00:45:57;;;;;;;16.77;10.75;;;;;;;;;;5119252;27;20154;-77
2022/03/07 00:48:23;;;;;;;17.17;10.63;;;;;;;;;;5103906;28;20043;-77
2022/03/07 00:50:50;;;;;;;15.13;10.48;;;;;;;;;;5115740;28;20092;-78
2022/03/07 00:53:17;;;;;;;15.45;10.23;;;;;;;;;;5116478;28;20469;-77
2022/03/07 00:55:43;;;;;;;13.88;10.20;;;;;;;;;;5131428;27;20031;-77
2022/03/07 00:58:09;;;;;;;15.45;10.18;;;;;;;;;;5114093;27;20090;-77
2022/03/07 01:00:36;;;;;;;16.52;9.85;;;;;;;;;;5127271;27;20039;-77
2022/03/07 01:03:04;;;;;;;12.63;10.15;;;;;;;;;;5124310;27;20124;-77
2022/03/07 01:05:30;;;;;;;15.57;9.50;;;;;;;;;;5115341;27;20046;-78
2022/03/07 01:07:56;;;;;;;15.77;10.95;;;;;;;;;;5135595;27;20078;-78
2022/03/07 01:10:22;;;;;;;16.90;10.77;;;;;;;;;;5127239;27;20437;-77
2022/03/07 01:12:49;;;;;;;15.27;10.30;;;;;;;;;;5123663;27;20045;-79
2022/03/07 01:15:16;;;;;;;18.42;10.23;;;;;;;;;;5131487;27;20074;-77
2022/03/07 01:17:42;;;;;;;16.52;9.93;;;;;;;;;;5094767;27;20103;-77
2022/03/07 01:20:09;;;;;;;18.50;9.98;;;;;;;;;;5095166;27;20118;-77
2022/03/07 01:22:36;;;;;;;16.25;10.98;;;;;;;;;;5087602;28;20495;-77
2022/03/07 01:25:03;;;;;;;16.10;10.30;;;;;;;;;;5111543;27;20047;-77
2022/03/07 01:27:29;;;;;;;17.35;10.50;;;;;;;;;;5115232;27;20118;-77
2022/03/07 01:29:56;;;;;;;16.80;10.77;;;;;;;;;;5133202;27;20047;-77
2022/03/07 01:32:22;;;;;;;18.30;10.27;;;;;;;;;;5118945;27;20042;-77
2022/03/07 01:34:48;;;;;;;20.50;11.48;;;;;;;;;;5114993;27;20058;-78
2022/03/07 01:37:15;;;;;;;20.65;11.70;;;;;;;;;;5134944;27;20169;-77
2022/03/07 01:39:41;;;;;;;18.98;11.20;;;;;;;;;;5118169;27;20074;-77
2022/03/07 01:42:07;;;;;;;19.20;11.57;;;;;;;;;;5113819;27;20174;-76
2022/03/07 01:44:34;;;;;;;19.23;10.77;;;;;;;;;;5114694;27;20483;-78
2022/03/07 01:47:00;;;;;;;18.83;11.10;;;;;;;;;;5134359;27;20497;-77
2022/03/07 01:49:27;;;;;;;17.13;10.73;;;;;;;;;;5097095;27;20047;-78
2022/03/07 01:51:53;;;;;;;15.10;10.43;;;;;;;;;;5135288;27;20530;-78
2022/03/07 01:54:20;;;;;;;19.08;10.98;;;;;;;;;;5117219;27;20032;-78
2022/03/07 01:56:47;;;;;;;14.68;10.45;;;;;;;;;;5100693;27;20039;-77
2022/03/07 01:59:14;;;;;;;13.45;9.75;;;;;;;;;;5106641;27;20519;-76
2022/03/07 02:01:40;;;;;;;14.35;9.77;;;;;;;;;;5131332;27;20057;-77
2022/03/07 02:04:07;;;;;;;16.50;10.48;;;;;;;;;;5121746;27;20062;-79
2022/03/07 02:06:33;;;;;;;16.13;10.50;;;;;;;;;;5134268;27;20035;-78
2022/03/07 02:08:59;;;;;;;15.20;10.77;;;;;;;;;;5132632;27;20555;-76
2022/03/07 02:11:26;;;;;;;16.63;11.13;;;;;;;;;;5134341;27;20099;-79
2022/03/07 02:13:53;;;;;;;16.30;10.50;;;;;;;;;;5097649;27;20504;-77
2022/03/07 02:16:20;;;;;;;15.55;10.18;;;;;;;;;;5115980;27;20043;-77
2022/03/07 02:18:47;;;;;;;19.13;9.90;;;;;;;;;;5133621;27;20071;-76
2022/03/07 02:21:17;;;;;;;14.38;9.85;;;;;;;;;;5132869;27;20122;-77
2022/03/07 02:23:44;;;;;;;14.68;10.00;;;;;;;;;;5107813;27;20039;-78
2022/03/07 02:26:11;;;;;;;15.93;11.00;;;;;;;;;;5114077;27;20039;-77
2022/03/07 02:28:39;;;;;;;16.20;9.93;;;;;;;;;;5133772;27;20038;-77
2022/03/07 02:31:05;;;;;;;14.00;9.73;;;;;;;;;;5135309;27;20043;-77
2022/03/07 02:33:31;;;;;;;15.00;10.35;;;;;;;;;;5113704;27;20042;-76
2022/03/07 02:35:57;;;;;;;16.80;10.27;;;;;;;;;;5133947;27;20043;-76
2022/03/07 02:38:23;;;;;;;17.50;10.65;;;;;;;;;;5133648;27;20126;-77
2022/03/07 02:40:49;;;;;;;17.10;10.98;;;;;;;;;;5103419;28;20521;-79
2022/03/07 02:43:16;;;;;;;20.33;11.77;;;;;;;;;;5112481;27;20046;-77
2022/03/07 02:45:43;;;;;;;18.30;12.05;;;;;;;;;;5133784;27;20080;-77
2022/03/07 02:48:09;;;;;;;18.33;11.60;;;;;;;;;;5079010;28;20076;-79
2022/03/07 02:50:35;;;;;;;15.88;11.57;;;;;;;;;;5126469;27;20078;-78
2022/03/07 02:53:01;;;;;;;21.75;12.10;;;;;;;;;;5099726;27;20043;-77
2022/03/07 02:55:28;;;;;;;19.85;12.30;;;;;;;;;;5133157;27;20036;-77
2022/03/07 02:57:54;;;;;;;17.08;12.20;;;;;;;;;;5099212;27;20053;-77
2022/03/07 03:00:20;;;;;;;23.00;12.40;;;;;;;;;;5113740;27;20055;-76
2022/03/07 03:02:46;;;;;;;17.38;11.43;;;;;;;;;;5097204;27;20104;-77
2022/03/07 03:05:12;;;;;;;17.70;12.05;;;;;;;;;;5088368;27;20064;-77
2022/03/07 03:07:41;;;;;;;18.52;11.25;;;;;;;;;;5130753;27;20035;-76
2022/03/07 03:10:07;;;;;;;20.80;11.13;;;;;;;;;;5107835;28;20043;-76
2022/03/07 03:12:34;;;;;;;18.13;10.88;;;;;;;;;;5105468;27;20114;-77
2022/03/07 03:15:00;;;;;;;16.98;10.75;;;;;;;;;;5088732;28;20507;-77
2022/03/07 03:17:26;;;;;;;21.50;12.27;;;;;;;;;;5093591;28;20051;-77
2022/03/07 03:19:53;;;;;;;23.70;12.18;;;;;;;;;;5101733;27;20123;-77
2022/03/07 03:22:19;;;;;;;18.13;13.00;;;;;;;;;;5118529;27;20126;-77
2022/03/07 03:24:49;;;;;;;22.92;12.82;;;;;;;;;;5131125;27;20046;-76
2022/03/07 03:27:15;;;;;;;20.33;12.85;;;;;;;;;;5118521;27;20035;-77
2022/03/07 03:29:41;;;;;;;23.88;11.95;;;;;;;;;;5125587;27;20043;-77
2022/03/07 03:32:07;;;;;;;20.15;12.27;;;;;;;;;;5095505;28;20039;-76
2022/03/07 03:34:34;;;;;;;16.70;11.65;;;;;;;;;;5077393;27;20619;-77
2022/03/07 03:37:00;;;;;;;16.75;11.35;;;;;;;;;;5133828;27;20387;-77
2022/03/07 03:39:26;;;;;;;24.13;12.13;;;;;;;;;;5111794;27;20056;-76
2022/03/07 03:41:52;;;;;;;18.48;10.75;;;;;;;;;;5115276;27;20134;-77
2022/03/07 03:44:18;;;;;;;22.48;12.98;;;;;;;;;;5100851;28;20464;-77
2022/03/07 03:46:44;;;;;;;21.35;12.65;;;;;;;;;;5076730;28;20513;-76
2022/03/07 03:49:10;;;;;;;18.75;10.73;;;;;;;;;;5132435;27;20047;-77
2022/03/07 03:51:36;;;;;;;16.42;9.80;;;;;;;;;;5131990;27;20107;-76
2022/03/07 03:54:03;;;;;;;18.67;10.60;;;;;;;;;;5131523;27;20483;-78
2022/03/07 03:56:29;;;;;;;15.30;10.23;;;;;;;;;;5127232;27;20093;-77
2022/03/07 03:58:55;;;;;;;18.80;11.18;;;;;;;;;;5115119;27;20142;-77
2022/03/07 04:01:21;;;;;;;15.40;10.65;;;;;;;;;;5124541;27;20052;-75
2022/03/07 04:03:47;;;;;;;13.10;9.68;;;;;;;;;;5093563;28;20135;-77
2022/03/07 04:06:13;;;;;;;21.33;11.73;;;;;;;;;;5099597;28;20066;-78
2022/03/07 04:08:42;;;;;;;15.15;10.52;;;;;;;;;;5133581;27;20103;-77
2022/03/07 04:11:09;;;;;;;16.70;11.60;;;;;;;;;;5129393;27;20043;-76
2022/03/07 04:13:35;;;;;;;19.50;11.40;;;;;;;;;;5097039;28;20036;-76
2022/03/07 04:16:01;;;;;;;19.08;11.40;;;;;;;;;;5096753;28;20036;-76
2022/03/07 04:18:27;;;;;;;17.60;11.57;;;;;;;;;;5131813;27;20032;-77
2022/03/07 04:20:53;;;;;;;19.08;12.18;;;;;;;;;;5129336;27;20079;-76
2022/03/07 04:23:21;;;;;;;21.60;14.27;;;;;;;;;;5126824;28;20123;-77
2022/03/07 04:25:48;;;;;;;26.30;15.60;;;;;;;;;;5130577;27;20430;-77
2022/03/07 04:28:14;;;;;;;25.20;14.52;;;;;;;;;;5113807;28;20040;-76
2022/03/07 04:30:40;;;;;;;29.95;14.43;;;;;;;;;;5116140;27;20070;-76
2022/03/07 04:33:08;;;;;;;28.90;14.63;;;;;;;;;;5112611;28;20511;-76
2022/03/07 04:35:34;;;;;;;26.42;14.27;;;;;;;;;;5112073;28;20097;-76
2022/03/07 04:38:01;;;;;;;24.00;13.55;;;;;;;;;;5125419;27;20035;-76
2022/03/07 04:40:28;;;;;;;25.35;14.10;;;;;;;;;;5111299;28;20405;-77
2022/03/07 04:42:57;;;;;;;25.05;14.30;;;;;;;;;;5124427;27;20031;-76
2022/03/07 04:45:23;;;;;;;23.88;13.50;;;;;;;;;;5109391;28;20074;-77
2022/03/07 04:47:50;;;;;;;27.38;15.05;;;;;;;;;;5102543;28;20666;-77
2022/03/07 04:50:16;;;;;;;30.08;16.35;;;;;;;;;;5132146;28;20039;-76
2022/03/07 04:52:42;;;;;;;28.55;16.75;;;;;;;;;;5114959;27;20481;-77
2022/03/07 04:55:12;;;;;;;32.30;17.67;;;;;;;;;;5094430;28;20623;-77
2022/03/07 04:57:38;;;;;;;33.25;17.35;;;;;;;;;;5102878;27;20417;-77
2022/03/07 05:00:09;;;;;;;31.65;17.83;;;;;;;;;;5124677;27;20055;-77
2022/03/07 05:02:35;;;;;;;30.80;18.53;;;;;;;;;;5108821;28;20043;-78
2022/03/07 05:05:01;;;;;;;37.63;19.45;;;;;;;;;;5127314;27;20043;-77
2022/03/07 05:07:27;;;;;;;41.47;19.23;;;;;;;;;;5113897;27;20050;-77
2022/03/07 05:09:53;;;;;;;53.88;21.38;;;;;;;;;;5118779;28;20050;-77
2022/03/07 05:12:19;;;;;;;43.95;20.20;;;;;;;;;;5103490;28;20390;-77
2022/03/07 05:14:45;;;;;;;75.53;24.73;;;;;;;;;;5106819;27;20043;-77
2022/03/07 05:17:11;;;;;;;40.83;22.33;;;;;;;;;;5129483;27;20039;-77
2022/03/07 05:19:37;;;;;;;38.55;21.23;;;;;;;;;;5134586;27;20523;-77
2022/03/07 05:22:04;;;;;;;39.17;21.27;;;;;;;;;;5133292;27;20043;-76
2022/03/07 05:24:30;;;;;;;46.10;23.85;;;;;;;;;;5114488;27;20119;-77
2022/03/07 05:26:56;;;;;;;37.00;20.92;;;;;;;;;;5100752;27;20421;-78
2022/03/07 05:29:22;;;;;;;42.08;22.45;;;;;;;;;;5111712;27;20462;-78
2022/03/07 05:31:48;;;;;;;36.90;21.95;;;;;;;;;;5124465;27;20080;-77
2022/03/07 05:34:14;;;;;;;34.05;21.50;;;;;;;;;;5118350;27;20383;-77
2022/03/07 05:36:40;;;;;;;33.00;21.48;;;;;;;;;;5131709;27;20616;-78
2022/03/07 05:39:06;;;;;;;34.03;21.40;;;;;;;;;;5116637;27;20092;-76
2022/03/07 05:41:33;;;;;;;30.63;20.95;;;;;;;;;;5107682;28;20055;-76
2022/03/07 05:43:59;;;;;;;32.22;20.92;;;;;;;;;;5127653;27;20053;-76
2022/03/07 05:46:25;;;;;;;35.90;22.73;;;;;;;;;;5116240;27;20480;-77
2022/03/07 05:48:51;;;;;;;33.42;21.75;;;;;;;;;;5131387;27;20046;-76
2022/03/07 05:51:22;;;;;;;33.63;21.92;;;;;;;;;;5134713;27;20122;-78
2022/03/07 05:53:49;;;;;;;32.58;20.73;;;;;;;;;;5134868;27;20091;-77
2022/03/07 05:56:15;;;;;;;32.35;21.50;;;;;;;;;;5104249;28;20477;-77
2022/03/07 05:58:41;;;;;;;36.03;22.70;;;;;;;;;;5111532;27;20046;-77
2022/03/07 06:01:07;;;;;;;35.35;22.20;;;;;;;;;;5110699;27;20044;-78
2022/03/07 06:03:33;;;;;;;35.53;21.45;;;;;;;;;;5091680;28;20040;-77
2022/03/07 06:05:59;;;;;;;34.75;21.85;;;;;;;;;;5102627;28;20071;-77
2022/03/07 06:08:25;;;;;;;33.17;20.88;;;;;;;;;;5112649;27;20484;-78
2022/03/07 06:10:51;;;;;;;30.63;21.13;;;;;;;;;;5116708;27;20043;-77
2022/03/07 06:13:19;;;;;;;33.30;22.45;;;;;;;;;;5131244;27;20054;-76
2022/03/07 06:15:45;;;;;;;33.42;21.65;;;;;;;;;;5122265;27;20101;-77
2022/03/07 06:18:12;;;;;;;33.50;22.13;;;;;;;;;;5130414;27;20058;-77
2022/03/07 06:20:38;;;;;;;38.22;21.98;;;;;;;;;;5133522;27;20066;-76
2022/03/07 06:23:05;;;;;;;37.25;22.30;;;;;;;;;;5114660;27;20039;-77
2022/03/07 06:25:33;;;;;;;36.33;20.88;;;;;;;;;;5085073;28;20529;-77
2022/03/07 06:27:59;;;;;;;31.30;19.77;;;;;;;;;;5114465;28;20079;-76
2022/03/07 06:30:26;;;;;;;30.55;19.75;;;;;;;;;;5097616;27;20047;-77
2022/03/07 06:32:52;;;;;;;35.05;20.70;;;;;;;;;;5110532;28;20115;-77
2022/03/07 06:35:18;;;;;;;46.05;22.73;;;;;;;;;;5109306;27;20426;-77
2022/03/07 06:37:52;;;;;;;40.10;20.92;;;;;;;;;;5096387;28;20039;-76
2022/03/07 06:40:19;;;;;;;149.75;25.65;;;;;;;;;;5124784;27;20047;-78
2022/03/07 06:42:46;;;;;;;119.55;25.58;;;;;;;;;;5105949;28;20118;-77
2022/03/07 06:45:12;;;;;;;82.53;24.58;;;;;;;;;;5105472;27;20099;-77
2022/03/07 06:47:42;;;;;;;45.42;23.73;;;;;;;;;;5119702;27;20035;-77
2022/03/07 06:50:08;;;;;;;38.58;23.13;;;;;;;;;;5107489;27;20401;-78
2022/03/07 06:52:35;;;;;;;99.75;25.40;;;;;;;;;;5123551;27;20043;-78
2022/03/07 06:55:01;;;;;;;129.00;26.88;;;;;;;;;;5131831;27;20040;-76
2022/03/07 06:57:27;;;;;;;97.28;24.55;;;;;;;;;;5127222;27;20035;-77
2022/03/07 06:59:53;;;;;;;40.65;24.00;;;;;;;;;;5120948;27;20051;-76
2022/03/07 07:02:20;;;;;;;42.75;24.33;;;;;;;;;;5109047;27;20067;-78
2022/03/07 07:04:46;;;;;;;40.55;23.67;;;;;;;;;;5092006;27;20035;-76
2022/03/07 07:07:12;;;;;;;34.97;22.15;;;;;;;;;;5123462;27;20043;-78
2022/03/07 07:09:39;;;;;;;32.03;22.40;;;;;;;;;;5107806;27;20039;-77
2022/03/07 07:12:05;;;;;;;28.90;21.25;;;;;;;;;;5106851;27;20387;-78
2022/03/07 07:14:31;;;;;;;29.88;20.88;;;;;;;;;;5120883;27;20515;-78
2022/03/07 07:16:57;;;;;;;33.38;23.02;;;;;;;;;;5134224;27;20035;-77
2022/03/07 07:19:23;;;;;;;32.60;25.00;;;;;;;;;;5099353;27;20039;-75
2022/03/07 07:21:49;;;;;;;31.08;21.80;;;;;;;;;;5116271;27;20031;-77
2022/03/07 07:24:15;;;;;;;33.78;22.77;;;;;;;;;;5134352;27;20039;-77
2022/03/07 07:26:42;;;;;;;31.90;22.85;;;;;;;;;;5134176;27;20042;-78
2022/03/07 07:29:08;;;;;;;28.48;20.83;;;;;;;;;;5099475;27;20035;-79
2022/03/07 07:31:34;;;;;;;27.40;20.83;;;;;;;;;;5134175;27;20125;-77
2022/03/07 07:34:00;;;;;;;26.85;20.05;;;;;;;;;;5115756;27;20043;-78
2022/03/07 07:36:26;;;;;;;23.05;18.77;;;;;;;;;;5134094;27;20039;-78
2022/03/07 07:38:52;;;;;;;25.08;19.50;;;;;;;;;;5114732;27;20472;-79
2022/03/07 07:41:18;;;;;;;24.55;18.02;;;;;;;;;;5115606;27;20384;-79
2022/03/07 07:43:45;;;;;;;22.55;16.83;;;;;;;;;;5133904;27;20088;-79
2022/03/07 07:46:11;;;;;;;21.95;16.42;;;;;;;;;;5134140;27;20035;-79
2022/03/07 07:48:37;;;;;;;19.55;15.60;;;;;;;;;;5115719;27;20039;-79
2022/03/07 07:51:03;;;;;;;21.85;16.45;;;;;;;;;;5133925;27;20046;-79
2022/03/07 07:53:29;;;;;;;20.80;15.38;;;;;;;;;;5115795;27;20043;-79
2022/03/07 07:55:55;;;;;;;18.25;14.57;;;;;;;;;;5133818;27;20520;-78
2022/03/07 07:58:21;;;;;;;19.23;14.82;;;;;;;;;;5133710;27;20043;-78
2022/03/07 08:00:49;;;;;;;17.90;14.32;;;;;;;;;;5133269;27;20051;-78
2022/03/07 08:03:15;;;;;;;18.10;14.90;;;;;;;;;;5115602;27;20047;-78
2022/03/07 08:05:45;;;;;;;19.55;15.65;;;;;;;;;;5133494;27;20089;-77
2022/03/07 08:08:11;;;;;;;22.23;15.10;;;;;;;;;;5133585;27;20126;-78
2022/03/07 08:10:37;;;;;;;18.25;15.52;;;;;;;;;;5133773;27;20126;-79
2022/03/07 08:13:03;;;;;;;18.77;15.40;;;;;;;;;;5133797;27;20440;-79
2022/03/07 08:15:29;;;;;;;19.80;14.73;;;;;;;;;;5115271;28;20041;-78
2022/03/07 08:17:56;;;;;;;16.15;14.07;;;;;;;;;;5115208;28;20437;-80
2022/03/07 08:20:27;;;;;;;18.10;14.23;;;;;;;;;;5133226;28;20054;-79
2022/03/07 08:22:54;;;;;;;17.80;14.30;;;;;;;;;;5133117;27;20118;-78
2022/03/07 08:25:21;;;;;;;21.08;14.48;;;;;;;;;;5133736;27;20043;-78
2022/03/07 08:27:48;;;;;;;17.73;13.23;;;;;;;;;;5133618;27;20118;-78
2022/03/07 08:30:15;;;;;;;18.55;14.43;;;;;;;;;;5115560;28;20126;-77
2022/03/07 08:32:42;;;;;;;20.40;15.18;;;;;;;;;;5115098;28;20065;-77
2022/03/07 08:35:09;;;;;;;17.23;14.32;;;;;;;;;;5133496;28;20035;-78
2022/03/07 08:37:35;;;;;;;19.83;14.43;;;;;;;;;;5133107;27;20567;-78
2022/03/07 08:40:02;;;;;;;19.45;15.10;;;;;;;;;;5133477;27;20129;-79
2022/03/07 08:42:28;;;;;;;19.05;15.20;;;;;;;;;;5114977;28;20081;-79
2022/03/07 08:44:54;;;;;;;21.85;16.55;;;;;;;;;;5115219;28;20365;-77
2022/03/07 08:47:20;;;;;;;21.83;16.45;;;;;;;;;;5133313;27;20043;-77
2022/03/07 08:49:47;;;;;;;21.05;15.32;;;;;;;;;;5133696;27;20070;-77
2022/03/07 08:52:15;;;;;;;22.20;14.57;;;;;;;;;;5137209;27;20145;-78
2022/03/07 08:54:44;;;;;;;21.30;15.38;;;;;;;;;;5118930;27;20533;-77
2022/03/07 08:57:11;;;;;;;20.65;15.68;;;;;;;;;;5137110;27;20572;-77
2022/03/07 08:59:37;;;;;;;20.52;15.55;;;;;;;;;;5136890;27;20047;-77
2022/03/07 09:02:04;;;;;;;21.55;15.85;;;;;;;;;;5137016;27;20392;-77
2022/03/07 09:04:30;;;;;;;20.65;14.05;;;;;;;;;;5136751;27;20039;-77
2022/03/07 09:06:56;;;;;;;18.00;13.60;;;;;;;;;;5136711;27;20046;-77
2022/03/07 09:09:22;;;;;;;20.70;13.90;;;;;;;;;;5136962;27;20046;-77
2022/03/07 09:11:48;;;;;;;19.65;13.60;;;;;;;;;;5136911;27;20035;-78
2022/03/07 09:14:15;;;;;;;21.38;13.57;;;;;;;;;;5136962;27;20074;-77
2022/03/07 09:16:42;;;;;;;18.08;12.52;;;;;;;;;;5136714;27;20039;-77
2022/03/07 09:19:08;;;;;;;19.13;12.43;;;;;;;;;;5136654;27;20046;-78
2022/03/07 09:21:34;;;;;;;16.20;11.75;;;;;;;;;;5136716;27;20121;-78
2022/03/07 09:24:00;;;;;;;18.70;11.95;;;;;;;;;;5136776;27;20038;-77
2022/03/07 09:26:26;;;;;;;16.60;10.57;;;;;;;;;;5136523;27;20122;-78
2022/03/07 09:28:52;;;;;;;14.63;9.20;;;;;;;;;;5118140;27;20043;-77
2022/03/07 09:31:18;;;;;;;12.90;7.72;;;;;;;;;;5136379;27;20074;-79
2022/03/07 09:33:45;;;;;;;13.00;6.72;;;;;;;;;;5136317;27;20086;-77
2022/03/07 09:36:11;;;;;;;11.10;6.55;;;;;;;;;;5134471;27;20036;-80
2022/03/07 09:38:38;;;;;;;14.55;6.88;;;;;;;;;;5136253;27;20050;-78
2022/03/07 09:41:05;;;;;;;12.15;7.20;;;;;;;;;;5112068;27;20039;-78
2022/03/07 09:43:31;;;;;;;11.13;6.88;;;;;;;;;;5107459;28;20096;-78
2022/03/07 09:45:57;;;;;;;15.20;7.05;;;;;;;;;;5115666;28;20035;-77
2022/03/07 09:48:24;;;;;;;14.98;7.00;;;;;;;;;;5115437;28;20079;-77
2022/03/07 09:50:50;;;;;;;13.13;6.57;;;;;;;;;;5115790;28;20042;-76
2022/03/07 09:53:17;;;;;;;12.77;6.90;;;;;;;;;;5115454;28;20083;-74
2022/03/07 09:55:44;;;;;;;13.30;6.43;;;;;;;;;;5097440;28;20094;-76
2022/03/07 09:58:10;;;;;;;10.85;6.20;;;;;;;;;;5115335;28;20043;-76
2022/03/07 10:00:40;;;;;;;12.80;5.97;;;;;;;;;;5096718;28;20130;-76
2022/03/07 10:03:09;;;;;;;10.23;5.93;;;;;;;;;;5096298;28;20685;-77
2022/03/07 10:05:41;;;;;;;13.55;6.63;;;;;;;;;;5114723;28;20042;-77
2022/03/07 10:08:08;;;;;;;14.40;6.45;;;;;;;;;;5115260;28;20050;-77
2022/03/07 10:10:36;;;;;;;9.70;5.68;;;;;;;;;;5096886;28;20769;-76
2022/03/07 10:13:06;;;;;;;10.35;6.15;;;;;;;;;;5079959;28;20051;-75
2022/03/07 10:15:33;;;;;;;14.80;6.68;;;;;;;;;;5114864;28;20124;-75
2022/03/07 10:17:59;;;;;;;11.75;6.43;;;;;;;;;;5096970;28;20135;-76
2022/03/07 10:20:26;;;;;;;14.77;7.47;;;;;;;;;;5096646;28;20130;-76
2022/03/07 10:22:53;;;;;;;13.05;7.13;;;;;;;;;;5096707;28;20092;-77
2022/03/07 10:25:31;;;;;;;11.20;6.68;;;;;;;;;;5114843;28;20044;-76
2022/03/07 10:27:58;;;;;;;10.75;6.72;;;;;;;;;;5096555;28;20066;-77
2022/03/07 10:30:26;;;;;;;11.80;6.63;;;;;;;;;;5114872;28;20040;-74
2022/03/07 10:32:59;;;;;;;12.82;6.72;;;;;;;;;;5114814;28;20082;-76
2022/03/07 10:35:33;;;;;;;13.00;6.82;;;;;;;;;;5096821;28;20488;-77
2022/03/07 10:38:01;;;;;;;12.15;6.78;;;;;;;;;;5079716;28;20070;-76
2022/03/07 10:40:28;;;;;;;10.52;6.20;;;;;;;;;;5114416;28;20039;-76
2022/03/07 10:42:54;;;;;;;12.00;6.20;;;;;;;;;;5114421;28;20104;-77
2022/03/07 10:45:22;;;;;;;10.57;5.00;;;;;;;;;;5114546;28;20039;-76
2022/03/07 10:47:58;;;;;;;10.07;5.05;;;;;;;;;;5114625;28;20047;-76
2022/03/07 10:50:25;;;;;;;9.15;5.05;;;;;;;;;;5114328;28;20047;-76
2022/03/07 10:52:54;;;;;;;10.52;5.22;;;;;;;;;;5114149;28;20057;-76
2022/03/07 10:55:24;;;;;;;9.20;4.55;;;;;;;;;;5114445;28;20035;-76
2022/03/07 10:57:50;;;;;;;10.98;5.07;;;;;;;;;;5114305;28;20382;-76
2022/03/07 11:00:18;;;;;;;9.80;4.65;;;;;;;;;;5114064;28;20051;-76
2022/03/07 11:02:47;;;;;;;9.70;4.75;;;;;;;;;;5096022;28;20110;-76
2022/03/07 11:05:14;;;;;;;12.00;5.15;;;;;;;;;;5114101;28;20043;-76
2022/03/07 11:07:41;;;;;;;8.38;4.40;;;;;;;;;;5095658;28;20392;-76
2022/03/07 11:10:08;;;;;;;12.63;4.60;;;;;;;;;;5114260;28;20066;-77
2022/03/07 11:12:35;;;;;;;8.85;4.38;;;;;;;;;;5113798;28;20152;-78
2022/03/07 11:15:08;;;;;;;12.07;4.60;;;;;;;;;;5113178;28;20035;-77
2022/03/07 11:17:36;;;;;;;8.25;3.95;;;;;;;;;;5113845;28;20168;-78
2022/03/07 11:20:03;;;;;;;7.75;3.35;;;;;;;;;;5095542;28;20046;-76
2022/03/07 11:22:29;;;;;;;8.85;4.07;;;;;;;;;;5095778;28;20044;-77
2022/03/07 11:24:56;;;;;;;9.77;4.40;;;;;;;;;;5095686;28;20382;-77
2022/03/07 11:27:22;;;;;;;7.22;3.90;;;;;;;;;;5113829;28;20122;-75
2022/03/07 11:29:48;;;;;;;8.80;4.10;;;;;;;;;;5113584;28;20088;-77
2022/03/07 11:32:15;;;;;;;8.98;4.00;;;;;;;;;;5095616;28;20035;-77
2022/03/07 11:34:52;;;;;;;11.27;4.03;;;;;;;;;;5095533;28;20043;-76
2022/03/07 11:37:19;;;;;;;8.07;4.10;;;;;;;;;;5095482;28;20650;-77
2022/03/07 11:39:45;;;;;;;9.50;4.15;;;;;;;;;;5113646;28;20043;-78
2022/03/07 11:42:11;;;;;;;9.50;4.03;;;;;;;;;;5113433;28;20044;-78
2022/03/07 11:44:38;;;;;;;9.32;4.05;;;;;;;;;;5095269;28;20385;-77
2022/03/07 11:47:30;;;;;;;8.75;4.20;;;;;;;;;;5095244;28;20040;-76
2022/03/07 11:50:00;;;;;;;7.50;4.00;;;;;;;;;;5091499;28;20056;-76
2022/03/07 11:52:26;;;;;;;7.45;3.55;;;;;;;;;;5113156;28;20492;-76
2022/03/07 11:54:54;;;;;;;8.38;4.68;;;;;;;;;;5113092;28;20134;-76
2022/03/07 11:57:31;;;;;;;13.48;4.97;;;;;;;;;;5112953;28;20090;-76
2022/03/07 11:59:58;;;;;;;8.73;3.70;;;;;;;;;;5112790;28;20066;-75
2022/03/07 12:02:24;;;;;;;7.30;2.90;;;;;;;;;;5078089;28;20082;-76
2022/03/07 12:04:50;;;;;;;6.75;2.72;;;;;;;;;;5094787;28;20075;-76
2022/03/07 12:07:26;;;;;;;6.25;2.35;;;;;;;;;;5094991;28;20051;-75
2022/03/07 12:09:52;;;;;;;6.05;3.05;;;;;;;;;;5094699;28;20372;-75
2022/03/07 12:12:21;;;;;;;7.03;3.03;;;;;;;;;;5111720;28;20046;-75
2022/03/07 12:14:47;;;;;;;6.88;3.15;;;;;;;;;;5094026;28;20042;-77
2022/03/07 12:17:15;;;;;;;8.15;3.53;;;;;;;;;;5093836;28;20473;-74
2022/03/07 12:19:42;;;;;;;7.00;3.17;;;;;;;;;;5094017;28;20047;-75
2022/03/07 12:22:11;;;;;;;7.85;2.80;;;;;;;;;;5111878;28;20063;-77
2022/03/07 12:24:39;;;;;;;6.50;2.70;;;;;;;;;;5094211;28;20035;-78
2022/03/07 12:27:05;;;;;;;9.38;3.60;;;;;;;;;;5098729;28;20108;-80
2022/03/07 12:29:31;;;;;;;9.27;3.45;;;;;;;;;;5098519;28;20046;-80
2022/03/07 12:31:59;;;;;;;7.63;3.40;;;;;;;;;;5098106;28;20088;-79
2022/03/07 12:34:26;;;;;;;8.05;2.75;;;;;;;;;;5116151;28;20126;-80
2022/03/07 12:36:57;;;;;;;10.07;3.75;;;;;;;;;;5116899;28;20043;-79
2022/03/07 12:39:23;;;;;;;8.40;3.40;;;;;;;;;;5099078;28;20380;-80
2022/03/07 12:41:49;;;;;;;7.63;3.00;;;;;;;;;;5082296;28;20047;-77
2022/03/07 12:44:15;;;;;;;5.97;2.58;;;;;;;;;;5098357;28;20461;-78
2022/03/07 12:46:41;;;;;;;10.13;2.55;;;;;;;;;;5098955;28;20512;-77
2022/03/07 12:49:07;;;;;;;11.27;3.17;;;;;;;;;;5116981;28;20043;-78
2022/03/07 12:51:33;;;;;;;10.07;2.75;;;;;;;;;;5098566;28;20541;-79
2022/03/07 12:54:00;;;;;;;8.02;3.13;;;;;;;;;;5116781;28;20533;-80
2022/03/07 12:56:34;;;;;;;7.65;2.75;;;;;;;;;;5098873;28;20031;-80
2022/03/07 12:59:01;;;;;;;7.40;2.85;;;;;;;;;;5116664;28;20050;-75
2022/03/07 13:01:28;;;;;;;6.72;3.10;;;;;;;;;;5116045;28;20052;-76
2022/03/07 13:03:55;;;;;;;5.45;2.78;;;;;;;;;;5116415;28;20047;-74
2022/03/07 13:06:22;;;;;;;7.90;2.95;;;;;;;;;;5116398;28;20100;-80
2022/03/07 13:08:53;;;;;;;10.18;2.88;;;;;;;;;;5116720;28;20043;-78
2022/03/07 13:11:34;;;;;;;6.60;2.90;;;;;;;;;;5098165;28;20035;-77
2022/03/07 13:14:00;;;;;;;;;;;;;;;;;;5116808;28;20668;-76
2022/03/07 13:16:28;;;;;;;5.82;2.80;;;;;;;;;;5114734;28;20315;-78
2022/03/07 13:19:00;;;;;;;6.15;2.90;;;;;;;;;;5115894;28;20050;-79
2022/03/07 13:21:27;;;;;;;7.35;3.03;;;;;;;;;;5116345;28;20124;-77
2022/03/07 13:23:53;;;;;;;7.47;3.10;;;;;;;;;;5116192;28;20044;-77
2022/03/07 13:26:23;;;;;;;6.82;3.17;;;;;;;;;;5098027;28;20092;-78
2022/03/07 13:28:49;;;;;;;5.40;2.70;;;;;;;;;;5116225;28;20123;-78
2022/03/07 13:31:15;;;;;;;7.22;2.80;;;;;;;;;;5100570;28;20099;-77
2022/03/07 13:33:42;;;;;;;6.63;2.92;;;;;;;;;;5100891;28;20112;-75
2022/03/07 13:36:12;;;;;;;5.40;2.90;;;;;;;;;;5099351;28;20048;-78
2022/03/07 13:38:38;;;;;;;8.23;3.97;;;;;;;;;;5098022;28;20048;-77
2022/03/07 13:41:08;;;;;;;8.40;3.60;;;;;;;;;;5115909;28;20040;-74
2022/03/07 13:43:35;;;;;;;8.43;2.95;;;;;;;;;;5115738;28;20118;-76
2022/03/07 13:46:01;;;;;;;13.85;6.88;;;;;;;;;;5115563;28;20504;-76
2022/03/07 13:48:28;;;;;;;6.75;2.90;;;;;;;;;;5115927;28;20036;-76
2022/03/07 13:50:55;;;;;;;6.28;2.70;;;;;;;;;;5115592;28;20049;-74
2022/03/07 13:53:22;;;;;;;18.80;5.90;;;;;;;;;;5097231;28;20051;-74
2022/03/07 13:55:54;;;;;;;9.13;5.03;;;;;;;;;;5080414;28;20044;-75
2022/03/07 13:58:22;;;;;;;7.88;2.70;;;;;;;;;;5096847;28;20039;-77
2022/03/07 14:00:48;;;;;;;7.20;2.70;;;;;;;;;;5096923;28;20430;-76
2022/03/07 14:03:17;;;;;;;8.10;4.03;;;;;;;;;;5097225;28;20357;-78
2022/03/07 14:05:53;;;;;;;5.07;2.40;;;;;;;;;;5115332;28;20183;-75
2022/03/07 14:08:29;;;;;;;6.28;2.95;;;;;;;;;;5115249;28;20050;-80
2022/03/07 14:10:59;;;;;;;5.50;2.63;;;;;;;;;;5080145;28;20047;-76
2022/03/07 14:13:45;;;;;;;4.97;2.28;;;;;;;;;;5115210;28;20047;-78
2022/03/07 14:16:12;;;;;;;5.60;2.40;;;;;;;;;;5096978;28;20047;-78
2022/03/07 14:18:38;;;;;;;7.47;2.90;;;;;;;;;;5113870;28;20526;-78
2022/03/07 14:21:04;;;;;;;11.68;5.30;;;;;;;;;;5114984;28;20036;-76
2022/03/07 14:23:31;;;;;;;8.23;3.72;;;;;;;;;;5096597;28;20043;-74
2022/03/07 14:25:58;;;;;;;4.90;2.53;;;;;;;;;;5114891;28;20084;-77